sensor_id;sensor_type;location;lat;lon;timestamp;P1;durP1;ratioP1;P2;durP2;ratioP2
30133;SDS011;16946;49.984;10.672;2022-12-08T00:00:00;14.27;;;10.63;;
30133;SDS011;16946;49.984;10.672;2022-12-08T00:00:31;12.27;;;10.80;;
30133;SDS011;16946;49.984;10.672;2022-12-08T00:01:05;13.17;;;10.57;;
30133;SDS011;16946;49.984;10.672;2022-12-08T00:01:40;11.70;;;10.50;;
30133;SDS011;16946;49.984;10.672;2022-12-08T00:02:10;13.63;;;10.77;;
30133;SDS011;16946;49.984;10.672;2022-12-08T00:02:42;14.50;;;12.05;;
30133;SDS011;16946;49.984;10.672;2022-12-08T00:03:13;13.90;;;11.67;;
30133;SDS011;16946;49.984;10.672;2022-12-08T00:03:44;13.63;;;10.93;;
30133;SDS011;16946;49.984;10.672;2022-12-08T00:04:14;13.33;;;11.33;;
30133;SDS011;16946;49.984;10.672;2022-12-08T00:04:45;12.67;;;10.73;;
30133;SDS011;16946;49.984;10.672;2022-12-08T00:05:34;14.50;;;11.75;;
30133;SDS011;16946;49.984;10.672;2022-12-08T00:06:27;12.30;;;11.00;;
30133;SDS011;16946;49.984;10.672;2022-12-08T00:07:18;13.13;;;10.57;;
30133;SDS011;16946;49.984;10.672;2022-12-08T00:08:08;13.20;;;11.00;;
30133;SDS011;16946;49.984;10.672;2022-12-08T00:08:57;13.63;;;11.43;;
30133;SDS011;16946;49.984;10.672;2022-12-08T00:09:46;13.32;;;11.30;;
30133;SDS011;16946;49.984;10.672;2022-12-08T00:10:18;15.10;;;11.82;;
30133;SDS011;16946;49.984;10.672;2022-12-08T00:10:48;14.60;;;12.73;;
30133;SDS011;16946;49.984;10.672;2022-12-08T00:11:19;14.00;;;12.07;;
30133;SDS011;16946;49.984;10.672;2022-12-08T00:11:50;14.30;;;11.70;;
30133;SDS011;16946;49.984;10.672;2022-12-08T00:12:25;17.65;;;13.15;;
30133;SDS011;16946;49.984;10.672;2022-12-08T00:12:56;16.63;;;12.80;;
30133;SDS011;16946;49.984;10.672;2022-12-08T00:13:26;20.30;;;13.13;;
30133;SDS011;16946;49.984;10.672;2022-12-08T00:13:57;13.87;;;12.47;;
30133;SDS011;16946;49.984;10.672;2022-12-08T00:14:29;14.27;;;12.77;;
30133;SDS011;16946;49.984;10.672;2022-12-08T00:15:04;16.77;;;12.50;;
30133;SDS011;16946;49.984;10.672;2022-12-08T00:15:35;16.33;;;12.75;;
30133;SDS011;16946;49.984;10.672;2022-12-08T00:16:06;16.20;;;13.47;;
30133;SDS011;16946;49.984;10.672;2022-12-08T00:16:37;14.13;;;12.63;;
30133;SDS011;16946;49.984;10.672;2022-12-08T00:17:08;15.00;;;12.70;;
30133;SDS011;16946;49.984;10.672;2022-12-08T00:17:40;16.58;;;12.93;;
30133;SDS011;16946;49.984;10.672;2022-12-08T00:18:10;14.13;;;12.50;;
30133;SDS011;16946;49.984;10.672;2022-12-08T00:18:41;13.37;;;11.90;;
30133;SDS011;16946;49.984;10.672;2022-12-08T00:19:11;13.67;;;12.23;;
30133;SDS011;16946;49.984;10.672;2022-12-08T00:19:42;16.57;;;13.13;;
30133;SDS011;16946;49.984;10.672;2022-12-08T00:20:13;13.85;;;11.48;;
30133;SDS011;16946;49.984;10.672;2022-12-08T00:20:44;13.30;;;11.90;;
30133;SDS011;16946;49.984;10.672;2022-12-08T00:21:14;18.23;;;12.37;;
30133;SDS011;16946;49.984;10.672;2022-12-08T00:21:45;14.63;;;11.47;;
30133;SDS011;16946;49.984;10.672;2022-12-08T00:22:16;15.93;;;12.43;;
30133;SDS011;16946;49.984;10.672;2022-12-08T00:22:46;15.13;;;12.87;;
30133;SDS011;16946;49.984;10.672;2022-12-08T00:23:17;14.93;;;13.13;;
30133;SDS011;16946;49.984;10.672;2022-12-08T00:23:47;15.20;;;12.40;;
30133;SDS011;16946;49.984;10.672;2022-12-08T00:24:18;17.47;;;13.80;;
30133;SDS011;16946;49.984;10.672;2022-12-08T00:24:49;14.48;;;12.98;;
30133;SDS011;16946;49.984;10.672;2022-12-08T00:25:20;19.67;;;14.20;;
30133;SDS011;16946;49.984;10.672;2022-12-08T00:25:51;14.33;;;12.83;;
30133;SDS011;16946;49.984;10.672;2022-12-08T00:26:21;15.57;;;12.93;;
30133;SDS011;16946;49.984;10.672;2022-12-08T00:26:52;15.18;;;13.60;;
30133;SDS011;16946;49.984;10.672;2022-12-08T00:27:23;16.17;;;12.73;;
30133;SDS011;16946;49.984;10.672;2022-12-08T00:27:53;15.10;;;12.93;;
30133;SDS011;16946;49.984;10.672;2022-12-08T00:28:24;16.17;;;13.50;;
30133;SDS011;16946;49.984;10.672;2022-12-08T00:28:54;15.90;;;14.17;;
30133;SDS011;16946;49.984;10.672;2022-12-08T00:29:25;16.30;;;13.33;;
30133;SDS011;16946;49.984;10.672;2022-12-08T00:29:55;15.77;;;14.00;;
30133;SDS011;16946;49.984;10.672;2022-12-08T00:30:26;17.30;;;13.43;;
30133;SDS011;16946;49.984;10.672;2022-12-08T00:30:56;16.73;;;13.87;;
30133;SDS011;16946;49.984;10.672;2022-12-08T00:31:27;15.20;;;13.60;;
30133;SDS011;16946;49.984;10.672;2022-12-08T00:31:57;17.03;;;14.93;;
30133;SDS011;16946;49.984;10.672;2022-12-08T00:32:28;15.53;;;12.60;;
30133;SDS011;16946;49.984;10.672;2022-12-08T00:32:59;14.67;;;13.13;;
30133;SDS011;16946;49.984;10.672;2022-12-08T00:33:29;14.23;;;11.83;;
30133;SDS011;16946;49.984;10.672;2022-12-08T00:34:00;14.07;;;12.13;;
30133;SDS011;16946;49.984;10.672;2022-12-08T00:34:31;15.23;;;12.90;;
30133;SDS011;16946;49.984;10.672;2022-12-08T00:35:02;13.50;;;12.13;;
30133;SDS011;16946;49.984;10.672;2022-12-08T00:35:33;16.57;;;12.83;;
30133;SDS011;16946;49.984;10.672;2022-12-08T00:36:06;18.90;;;12.73;;
30133;SDS011;16946;49.984;10.672;2022-12-08T00:36:38;15.93;;;13.02;;
30133;SDS011;16946;49.984;10.672;2022-12-08T00:37:09;14.97;;;11.97;;
30133;SDS011;16946;49.984;10.672;2022-12-08T00:37:40;16.77;;;12.47;;
30133;SDS011;16946;49.984;10.672;2022-12-08T00:38:10;15.20;;;12.50;;
30133;SDS011;16946;49.984;10.672;2022-12-08T00:38:41;14.20;;;11.90;;
30133;SDS011;16946;49.984;10.672;2022-12-08T00:39:14;14.57;;;12.32;;
30133;SDS011;16946;49.984;10.672;2022-12-08T00:39:45;14.23;;;12.60;;
30133;SDS011;16946;49.984;10.672;2022-12-08T00:40:16;14.50;;;12.47;;
30133;SDS011;16946;49.984;10.672;2022-12-08T00:40:46;13.67;;;11.90;;
30133;SDS011;16946;49.984;10.672;2022-12-08T00:41:18;18.00;;;13.37;;
30133;SDS011;16946;49.984;10.672;2022-12-08T00:42:12;17.35;;;14.32;;
30133;SDS011;16946;49.984;10.672;2022-12-08T00:42:43;19.37;;;17.07;;
30133;SDS011;16946;49.984;10.672;2022-12-08T00:43:13;41.43;;;31.23;;
30133;SDS011;16946;49.984;10.672;2022-12-08T00:43:44;17.10;;;14.85;;
30133;SDS011;16946;49.984;10.672;2022-12-08T00:44:15;15.10;;;12.90;;
30133;SDS011;16946;49.984;10.672;2022-12-08T00:44:50;17.02;;;13.35;;
30133;SDS011;16946;49.984;10.672;2022-12-08T00:45:21;15.23;;;11.77;;
30133;SDS011;16946;49.984;10.672;2022-12-08T00:45:52;14.98;;;12.60;;
30133;SDS011;16946;49.984;10.672;2022-12-08T00:46:22;17.27;;;13.93;;
30133;SDS011;16946;49.984;10.672;2022-12-08T00:46:53;16.53;;;12.90;;
30133;SDS011;16946;49.984;10.672;2022-12-08T00:47:24;15.02;;;12.52;;
30133;SDS011;16946;49.984;10.672;2022-12-08T00:47:54;14.37;;;12.87;;
30133;SDS011;16946;49.984;10.672;2022-12-08T00:48:25;15.43;;;13.47;;
30133;SDS011;16946;49.984;10.672;2022-12-08T00:48:55;13.50;;;12.10;;
30133;SDS011;16946;49.984;10.672;2022-12-08T00:49:26;15.07;;;13.30;;
30133;SDS011;16946;49.984;10.672;2022-12-08T00:49:56;15.10;;;13.50;;
30133;SDS011;16946;49.984;10.672;2022-12-08T00:50:27;15.73;;;13.17;;
30133;SDS011;16946;49.984;10.672;2022-12-08T00:50:57;15.50;;;12.97;;
30133;SDS011;16946;49.984;10.672;2022-12-08T00:51:28;15.60;;;13.93;;
30133;SDS011;16946;49.984;10.672;2022-12-08T00:51:58;15.67;;;13.97;;
30133;SDS011;16946;49.984;10.672;2022-12-08T00:52:29;16.67;;;14.00;;
30133;SDS011;16946;49.984;10.672;2022-12-08T00:52:59;16.30;;;12.77;;
30133;SDS011;16946;49.984;10.672;2022-12-08T00:53:30;14.80;;;12.50;;
30133;SDS011;16946;49.984;10.672;2022-12-08T00:54:01;15.87;;;13.73;;
30133;SDS011;16946;49.984;10.672;2022-12-08T00:54:33;16.73;;;13.88;;
30133;SDS011;16946;49.984;10.672;2022-12-08T00:55:04;15.07;;;13.32;;
30133;SDS011;16946;49.984;10.672;2022-12-08T00:55:34;16.47;;;14.13;;
30133;SDS011;16946;49.984;10.672;2022-12-08T00:56:05;15.97;;;13.63;;
30133;SDS011;16946;49.984;10.672;2022-12-08T00:56:36;16.03;;;13.60;;
30133;SDS011;16946;49.984;10.672;2022-12-08T00:57:07;16.50;;;13.70;;
30133;SDS011;16946;49.984;10.672;2022-12-08T00:57:37;17.27;;;14.07;;
30133;SDS011;16946;49.984;10.672;2022-12-08T00:58:08;15.57;;;13.90;;
30133;SDS011;16946;49.984;10.672;2022-12-08T00:58:38;15.67;;;13.03;;
30133;SDS011;16946;49.984;10.672;2022-12-08T00:59:09;16.77;;;13.77;;
30133;SDS011;16946;49.984;10.672;2022-12-08T00:59:39;15.17;;;12.97;;
30133;SDS011;16946;49.984;10.672;2022-12-08T01:00:10;14.60;;;12.70;;
30133;SDS011;16946;49.984;10.672;2022-12-08T01:00:41;16.43;;;13.70;;
30133;SDS011;16946;49.984;10.672;2022-12-08T01:01:13;14.30;;;12.00;;
30133;SDS011;16946;49.984;10.672;2022-12-08T01:01:44;13.98;;;12.40;;
30133;SDS011;16946;49.984;10.672;2022-12-08T01:02:15;14.90;;;12.43;;
30133;SDS011;16946;49.984;10.672;2022-12-08T01:02:46;18.37;;;13.60;;
30133;SDS011;16946;49.984;10.672;2022-12-08T01:03:16;13.07;;;11.70;;
30133;SDS011;16946;49.984;10.672;2022-12-08T01:03:47;15.07;;;13.27;;
30133;SDS011;16946;49.984;10.672;2022-12-08T01:04:18;17.20;;;12.00;;
30133;SDS011;16946;49.984;10.672;2022-12-08T01:04:48;14.48;;;11.60;;
30133;SDS011;16946;49.984;10.672;2022-12-08T01:05:19;17.35;;;13.50;;
30133;SDS011;16946;49.984;10.672;2022-12-08T01:05:50;13.80;;;12.33;;
30133;SDS011;16946;49.984;10.672;2022-12-08T01:06:21;15.37;;;13.27;;
30133;SDS011;16946;49.984;10.672;2022-12-08T01:06:51;15.13;;;13.43;;
30133;SDS011;16946;49.984;10.672;2022-12-08T01:07:22;13.93;;;12.10;;
30133;SDS011;16946;49.984;10.672;2022-12-08T01:07:52;14.83;;;12.93;;
30133;SDS011;16946;49.984;10.672;2022-12-08T01:08:23;14.40;;;12.73;;
30133;SDS011;16946;49.984;10.672;2022-12-08T01:08:53;16.57;;;13.70;;
30133;SDS011;16946;49.984;10.672;2022-12-08T01:09:24;16.77;;;13.57;;
30133;SDS011;16946;49.984;10.672;2022-12-08T01:09:54;14.60;;;13.10;;
30133;SDS011;16946;49.984;10.672;2022-12-08T01:10:26;15.32;;;13.63;;
30133;SDS011;16946;49.984;10.672;2022-12-08T01:11:02;16.13;;;13.57;;
30133;SDS011;16946;49.984;10.672;2022-12-08T01:11:34;15.13;;;13.52;;
30133;SDS011;16946;49.984;10.672;2022-12-08T01:12:05;15.18;;;13.45;;
30133;SDS011;16946;49.984;10.672;2022-12-08T01:12:35;16.08;;;12.65;;
30133;SDS011;16946;49.984;10.672;2022-12-08T01:13:06;18.87;;;14.03;;
30133;SDS011;16946;49.984;10.672;2022-12-08T01:13:37;16.83;;;12.73;;
30133;SDS011;16946;49.984;10.672;2022-12-08T01:14:07;15.65;;;12.65;;
30133;SDS011;16946;49.984;10.672;2022-12-08T01:14:38;17.37;;;12.97;;
30133;SDS011;16946;49.984;10.672;2022-12-08T01:15:09;14.57;;;12.87;;
30133;SDS011;16946;49.984;10.672;2022-12-08T01:15:39;16.67;;;13.60;;
30133;SDS011;16946;49.984;10.672;2022-12-08T01:16:17;16.63;;;13.50;;
30133;SDS011;16946;49.984;10.672;2022-12-08T01:16:52;16.77;;;13.15;;
30133;SDS011;16946;49.984;10.672;2022-12-08T01:17:23;16.10;;;12.80;;
30133;SDS011;16946;49.984;10.672;2022-12-08T01:17:53;15.37;;;13.57;;
30133;SDS011;16946;49.984;10.672;2022-12-08T01:18:25;14.33;;;12.83;;
30133;SDS011;16946;49.984;10.672;2022-12-08T01:18:56;16.88;;;14.68;;
30133;SDS011;16946;49.984;10.672;2022-12-08T01:19:27;15.55;;;13.13;;
30133;SDS011;16946;49.984;10.672;2022-12-08T01:19:59;14.95;;;12.95;;
30133;SDS011;16946;49.984;10.672;2022-12-08T01:20:30;14.50;;;12.63;;
30133;SDS011;16946;49.984;10.672;2022-12-08T01:21:02;14.03;;;12.53;;
30133;SDS011;16946;49.984;10.672;2022-12-08T01:21:36;16.52;;;13.20;;
30133;SDS011;16946;49.984;10.672;2022-12-08T01:22:06;14.70;;;13.00;;
30133;SDS011;16946;49.984;10.672;2022-12-08T01:22:37;14.00;;;12.33;;
30133;SDS011;16946;49.984;10.672;2022-12-08T01:23:07;15.53;;;12.03;;
30133;SDS011;16946;49.984;10.672;2022-12-08T01:23:38;13.27;;;11.87;;
30133;SDS011;16946;49.984;10.672;2022-12-08T01:24:12;13.63;;;12.10;;
30133;SDS011;16946;49.984;10.672;2022-12-08T01:24:44;14.60;;;12.50;;
30133;SDS011;16946;49.984;10.672;2022-12-08T01:25:14;14.97;;;13.37;;
30133;SDS011;16946;49.984;10.672;2022-12-08T01:25:45;16.00;;;12.13;;
30133;SDS011;16946;49.984;10.672;2022-12-08T01:26:16;15.60;;;12.37;;
30133;SDS011;16946;49.984;10.672;2022-12-08T01:26:48;15.38;;;11.27;;
30133;SDS011;16946;49.984;10.672;2022-12-08T01:27:19;15.38;;;11.80;;
30133;SDS011;16946;49.984;10.672;2022-12-08T01:27:50;13.97;;;12.10;;
30133;SDS011;16946;49.984;10.672;2022-12-08T01:28:22;14.90;;;11.65;;
30133;SDS011;16946;49.984;10.672;2022-12-08T01:28:52;14.83;;;12.70;;
30133;SDS011;16946;49.984;10.672;2022-12-08T01:29:23;13.70;;;11.37;;
30133;SDS011;16946;49.984;10.672;2022-12-08T01:29:55;14.32;;;11.93;;
30133;SDS011;16946;49.984;10.672;2022-12-08T01:30:25;14.03;;;11.67;;
30133;SDS011;16946;49.984;10.672;2022-12-08T01:30:56;13.40;;;11.47;;
30133;SDS011;16946;49.984;10.672;2022-12-08T01:31:27;13.40;;;11.52;;
30133;SDS011;16946;49.984;10.672;2022-12-08T01:31:58;13.80;;;12.30;;
30133;SDS011;16946;49.984;10.672;2022-12-08T01:32:28;14.97;;;12.40;;
30133;SDS011;16946;49.984;10.672;2022-12-08T01:32:59;14.30;;;12.30;;
30133;SDS011;16946;49.984;10.672;2022-12-08T01:33:30;13.93;;;11.75;;
30133;SDS011;16946;49.984;10.672;2022-12-08T01:34:01;13.40;;;11.80;;
30133;SDS011;16946;49.984;10.672;2022-12-08T01:34:32;13.68;;;12.23;;
30133;SDS011;16946;49.984;10.672;2022-12-08T01:35:03;14.52;;;11.45;;
30133;SDS011;16946;49.984;10.672;2022-12-08T01:35:34;12.37;;;11.03;;
30133;SDS011;16946;49.984;10.672;2022-12-08T01:36:05;14.73;;;12.30;;
30133;SDS011;16946;49.984;10.672;2022-12-08T01:36:36;13.77;;;11.90;;
30133;SDS011;16946;49.984;10.672;2022-12-08T01:37:07;13.35;;;11.90;;
30133;SDS011;16946;49.984;10.672;2022-12-08T01:37:38;14.30;;;12.13;;
30133;SDS011;16946;49.984;10.672;2022-12-08T01:38:08;17.10;;;13.27;;
30133;SDS011;16946;49.984;10.672;2022-12-08T01:38:39;13.10;;;11.67;;
30133;SDS011;16946;49.984;10.672;2022-12-08T01:39:12;15.30;;;12.00;;
30133;SDS011;16946;49.984;10.672;2022-12-08T01:39:45;15.38;;;12.48;;
30133;SDS011;16946;49.984;10.672;2022-12-08T01:40:15;15.00;;;12.10;;
30133;SDS011;16946;49.984;10.672;2022-12-08T01:40:46;15.57;;;11.95;;
30133;SDS011;16946;49.984;10.672;2022-12-08T01:41:19;16.73;;;12.00;;
30133;SDS011;16946;49.984;10.672;2022-12-08T01:41:51;12.88;;;11.55;;
30133;SDS011;16946;49.984;10.672;2022-12-08T01:42:22;13.53;;;12.13;;
30133;SDS011;16946;49.984;10.672;2022-12-08T01:42:53;15.60;;;13.45;;
30133;SDS011;16946;49.984;10.672;2022-12-08T01:43:24;16.93;;;13.87;;
30133;SDS011;16946;49.984;10.672;2022-12-08T01:45:31;14.03;;;12.60;;
30133;SDS011;16946;49.984;10.672;2022-12-08T01:46:01;13.80;;;12.25;;
30133;SDS011;16946;49.984;10.672;2022-12-08T01:46:32;13.10;;;11.70;;
30133;SDS011;16946;49.984;10.672;2022-12-08T01:47:04;15.57;;;11.80;;
30133;SDS011;16946;49.984;10.672;2022-12-08T01:47:37;14.37;;;11.60;;
30133;SDS011;16946;49.984;10.672;2022-12-08T01:48:21;14.18;;;12.68;;
30133;SDS011;16946;49.984;10.672;2022-12-08T01:49:03;13.80;;;12.23;;
30133;SDS011;16946;49.984;10.672;2022-12-08T01:49:49;15.80;;;11.90;;
30133;SDS011;16946;49.984;10.672;2022-12-08T01:50:20;16.90;;;13.00;;
30133;SDS011;16946;49.984;10.672;2022-12-08T01:50:52;16.00;;;13.05;;
30133;SDS011;16946;49.984;10.672;2022-12-08T01:51:24;15.65;;;13.40;;
30133;SDS011;16946;49.984;10.672;2022-12-08T01:51:59;17.02;;;13.65;;
30133;SDS011;16946;49.984;10.672;2022-12-08T01:53:28;15.98;;;13.52;;
30133;SDS011;16946;49.984;10.672;2022-12-08T01:54:02;15.63;;;12.75;;
30133;SDS011;16946;49.984;10.672;2022-12-08T01:54:38;16.67;;;12.65;;
30133;SDS011;16946;49.984;10.672;2022-12-08T01:55:57;16.63;;;12.95;;
30133;SDS011;16946;49.984;10.672;2022-12-08T01:56:15;16.75;;;12.55;;
30133;SDS011;16946;49.984;10.672;2022-12-08T01:57:01;14.68;;;12.70;;
30133;SDS011;16946;49.984;10.672;2022-12-08T01:57:40;15.23;;;12.73;;
30133;SDS011;16946;49.984;10.672;2022-12-08T01:58:31;15.80;;;14.10;;
30133;SDS011;16946;49.984;10.672;2022-12-08T01:59:06;18.27;;;13.43;;
30133;SDS011;16946;49.984;10.672;2022-12-08T01:59:38;15.85;;;12.93;;
30133;SDS011;16946;49.984;10.672;2022-12-08T02:00:14;14.43;;;12.00;;
30133;SDS011;16946;49.984;10.672;2022-12-08T02:00:47;14.25;;;12.65;;
30133;SDS011;16946;49.984;10.672;2022-12-08T02:01:18;15.82;;;13.23;;
30133;SDS011;16946;49.984;10.672;2022-12-08T02:01:49;14.87;;;12.87;;
30133;SDS011;16946;49.984;10.672;2022-12-08T02:02:20;14.18;;;12.65;;
30133;SDS011;16946;49.984;10.672;2022-12-08T02:03:27;14.63;;;12.77;;
30133;SDS011;16946;49.984;10.672;2022-12-08T02:04:08;13.40;;;12.00;;
30133;SDS011;16946;49.984;10.672;2022-12-08T02:04:39;15.37;;;12.73;;
30133;SDS011;16946;49.984;10.672;2022-12-08T02:05:10;17.13;;;13.13;;
30133;SDS011;16946;49.984;10.672;2022-12-08T02:05:41;14.25;;;11.85;;
30133;SDS011;16946;49.984;10.672;2022-12-08T02:06:13;17.33;;;11.77;;
30133;SDS011;16946;49.984;10.672;2022-12-08T02:06:44;14.93;;;12.40;;
30133;SDS011;16946;49.984;10.672;2022-12-08T02:07:16;17.48;;;13.15;;
30133;SDS011;16946;49.984;10.672;2022-12-08T02:07:47;15.88;;;12.90;;
30133;SDS011;16946;49.984;10.672;2022-12-08T02:08:19;15.20;;;12.63;;
30133;SDS011;16946;49.984;10.672;2022-12-08T02:08:50;14.23;;;12.00;;
30133;SDS011;16946;49.984;10.672;2022-12-08T02:09:21;14.60;;;11.60;;
30133;SDS011;16946;49.984;10.672;2022-12-08T02:09:53;14.55;;;12.23;;
30133;SDS011;16946;49.984;10.672;2022-12-08T02:10:26;14.40;;;11.77;;
30133;SDS011;16946;49.984;10.672;2022-12-08T02:10:58;14.82;;;12.75;;
30133;SDS011;16946;49.984;10.672;2022-12-08T02:11:29;16.20;;;13.13;;
30133;SDS011;16946;49.984;10.672;2022-12-08T02:11:59;15.07;;;12.60;;
30133;SDS011;16946;49.984;10.672;2022-12-08T02:12:30;16.40;;;12.60;;
30133;SDS011;16946;49.984;10.672;2022-12-08T02:13:01;18.73;;;12.27;;
30133;SDS011;16946;49.984;10.672;2022-12-08T02:13:33;14.57;;;11.88;;
30133;SDS011;16946;49.984;10.672;2022-12-08T02:14:05;15.67;;;12.67;;
30133;SDS011;16946;49.984;10.672;2022-12-08T02:14:37;15.55;;;11.85;;
30133;SDS011;16946;49.984;10.672;2022-12-08T02:15:08;15.57;;;12.03;;
30133;SDS011;16946;49.984;10.672;2022-12-08T02:15:58;16.38;;;12.38;;
30133;SDS011;16946;49.984;10.672;2022-12-08T02:17:25;13.40;;;12.00;;
30133;SDS011;16946;49.984;10.672;2022-12-08T02:20:44;14.20;;;11.85;;
30133;SDS011;16946;49.984;10.672;2022-12-08T02:22:10;15.82;;;13.65;;
30133;SDS011;16946;49.984;10.672;2022-12-08T02:22:53;17.50;;;13.30;;
30133;SDS011;16946;49.984;10.672;2022-12-08T02:24:38;13.88;;;12.02;;
30133;SDS011;16946;49.984;10.672;2022-12-08T02:25:32;14.93;;;13.30;;
30133;SDS011;16946;49.984;10.672;2022-12-08T02:31:10;16.75;;;13.38;;
30133;SDS011;16946;49.984;10.672;2022-12-08T02:35:26;15.95;;;12.90;;
30133;SDS011;16946;49.984;10.672;2022-12-08T02:37:16;15.60;;;14.02;;
30133;SDS011;16946;49.984;10.672;2022-12-08T02:38:06;15.73;;;13.60;;
30133;SDS011;16946;49.984;10.672;2022-12-08T02:38:55;17.00;;;15.15;;
30133;SDS011;16946;49.984;10.672;2022-12-08T02:39:52;15.68;;;12.82;;
30133;SDS011;16946;49.984;10.672;2022-12-08T02:40:56;16.50;;;13.75;;
30133;SDS011;16946;49.984;10.672;2022-12-08T02:42:20;16.15;;;14.30;;
30133;SDS011;16946;49.984;10.672;2022-12-08T02:43:25;16.17;;;14.20;;
30133;SDS011;16946;49.984;10.672;2022-12-08T02:44:04;15.68;;;13.48;;
30133;SDS011;16946;49.984;10.672;2022-12-08T02:45:16;17.38;;;14.32;;
30133;SDS011;16946;49.984;10.672;2022-12-08T02:45:55;18.58;;;14.85;;
30133;SDS011;16946;49.984;10.672;2022-12-08T02:46:56;15.73;;;13.15;;
30133;SDS011;16946;49.984;10.672;2022-12-08T02:47:49;20.00;;;16.40;;
30133;SDS011;16946;49.984;10.672;2022-12-08T02:48:20;18.08;;;14.25;;
30133;SDS011;16946;49.984;10.672;2022-12-08T02:48:51;18.17;;;15.27;;
30133;SDS011;16946;49.984;10.672;2022-12-08T02:49:26;18.63;;;14.75;;
30133;SDS011;16946;49.984;10.672;2022-12-08T02:50:03;17.63;;;15.10;;
30133;SDS011;16946;49.984;10.672;2022-12-08T02:50:35;20.35;;;16.00;;
30133;SDS011;16946;49.984;10.672;2022-12-08T02:51:05;17.08;;;14.70;;
30133;SDS011;16946;49.984;10.672;2022-12-08T02:51:36;19.20;;;15.53;;
30133;SDS011;16946;49.984;10.672;2022-12-08T02:52:36;19.47;;;17.37;;
30133;SDS011;16946;49.984;10.672;2022-12-08T02:52:58;20.58;;;17.13;;
30133;SDS011;16946;49.984;10.672;2022-12-08T02:53:29;18.97;;;15.30;;
30133;SDS011;16946;49.984;10.672;2022-12-08T02:54:02;21.20;;;16.23;;
30133;SDS011;16946;49.984;10.672;2022-12-08T02:54:33;19.80;;;16.13;;
30133;SDS011;16946;49.984;10.672;2022-12-08T02:55:07;20.02;;;15.75;;
30133;SDS011;16946;49.984;10.672;2022-12-08T02:58:14;20.38;;;15.77;;
30133;SDS011;16946;49.984;10.672;2022-12-08T02:59:32;20.48;;;16.27;;
30133;SDS011;16946;49.984;10.672;2022-12-08T03:00:19;19.80;;;16.55;;
30133;SDS011;16946;49.984;10.672;2022-12-08T03:02:57;18.42;;;15.07;;
30133;SDS011;16946;49.984;10.672;2022-12-08T03:03:58;19.45;;;15.30;;
30133;SDS011;16946;49.984;10.672;2022-12-08T03:04:49;19.10;;;15.73;;
30133;SDS011;16946;49.984;10.672;2022-12-08T03:05:31;20.42;;;15.13;;
30133;SDS011;16946;49.984;10.672;2022-12-08T03:07:13;18.38;;;15.20;;
30133;SDS011;16946;49.984;10.672;2022-12-08T03:07:52;19.60;;;16.30;;
30133;SDS011;16946;49.984;10.672;2022-12-08T03:09:28;18.73;;;15.88;;
30133;SDS011;16946;49.984;10.672;2022-12-08T03:10:11;19.38;;;14.65;;
30133;SDS011;16946;49.984;10.672;2022-12-08T03:11:35;20.30;;;15.80;;
30133;SDS011;16946;49.984;10.672;2022-12-08T03:13:08;19.50;;;14.85;;
30133;SDS011;16946;49.984;10.672;2022-12-08T03:13:44;17.95;;;15.63;;
30133;SDS011;16946;49.984;10.672;2022-12-08T03:14:17;18.83;;;15.38;;
30133;SDS011;16946;49.984;10.672;2022-12-08T03:14:51;19.20;;;15.45;;
30133;SDS011;16946;49.984;10.672;2022-12-08T03:15:24;19.17;;;16.35;;
30133;SDS011;16946;49.984;10.672;2022-12-08T03:15:54;24.07;;;17.90;;
30133;SDS011;16946;49.984;10.672;2022-12-08T03:16:26;18.30;;;15.93;;
30133;SDS011;16946;49.984;10.672;2022-12-08T03:16:58;18.13;;;15.23;;
30133;SDS011;16946;49.984;10.672;2022-12-08T03:17:30;18.83;;;15.35;;
30133;SDS011;16946;49.984;10.672;2022-12-08T03:18:01;19.52;;;15.63;;
30133;SDS011;16946;49.984;10.672;2022-12-08T03:18:35;20.10;;;15.60;;
30133;SDS011;16946;49.984;10.672;2022-12-08T03:19:10;19.77;;;15.25;;
30133;SDS011;16946;49.984;10.672;2022-12-08T03:19:47;18.67;;;15.70;;
30133;SDS011;16946;49.984;10.672;2022-12-08T03:20:19;22.00;;;15.48;;
30133;SDS011;16946;49.984;10.672;2022-12-08T03:20:52;20.83;;;17.10;;
30133;SDS011;16946;49.984;10.672;2022-12-08T03:21:23;19.47;;;16.07;;
30133;SDS011;16946;49.984;10.672;2022-12-08T03:21:56;19.00;;;17.00;;
30133;SDS011;16946;49.984;10.672;2022-12-08T03:22:31;17.23;;;15.35;;
30133;SDS011;16946;49.984;10.672;2022-12-08T03:23:03;19.27;;;14.90;;
30133;SDS011;16946;49.984;10.672;2022-12-08T03:23:37;22.30;;;16.95;;
30133;SDS011;16946;49.984;10.672;2022-12-08T03:24:10;19.60;;;15.90;;
30133;SDS011;16946;49.984;10.672;2022-12-08T03:24:44;20.65;;;16.70;;
30133;SDS011;16946;49.984;10.672;2022-12-08T03:25:16;17.15;;;15.25;;
30133;SDS011;16946;49.984;10.672;2022-12-08T03:26:00;23.58;;;16.60;;
30133;SDS011;16946;49.984;10.672;2022-12-08T03:26:42;20.05;;;17.45;;
30133;SDS011;16946;49.984;10.672;2022-12-08T03:27:18;22.23;;;17.02;;
30133;SDS011;16946;49.984;10.672;2022-12-08T03:27:52;19.25;;;16.17;;
30133;SDS011;16946;49.984;10.672;2022-12-08T03:28:23;19.60;;;16.27;;
30133;SDS011;16946;49.984;10.672;2022-12-08T03:28:54;20.08;;;16.80;;
30133;SDS011;16946;49.984;10.672;2022-12-08T03:29:25;19.77;;;16.08;;
30133;SDS011;16946;49.984;10.672;2022-12-08T03:29:56;20.27;;;16.17;;
30133;SDS011;16946;49.984;10.672;2022-12-08T03:30:28;19.45;;;17.25;;
30133;SDS011;16946;49.984;10.672;2022-12-08T03:31:05;17.23;;;15.23;;
30133;SDS011;16946;49.984;10.672;2022-12-08T03:31:42;20.80;;;16.40;;
30133;SDS011;16946;49.984;10.672;2022-12-08T03:32:22;20.83;;;15.07;;
30133;SDS011;16946;49.984;10.672;2022-12-08T03:33:27;19.13;;;17.02;;
30133;SDS011;16946;49.984;10.672;2022-12-08T03:34:02;19.90;;;16.23;;
30133;SDS011;16946;49.984;10.672;2022-12-08T03:34:34;21.08;;;16.48;;
30133;SDS011;16946;49.984;10.672;2022-12-08T03:35:10;26.15;;;17.52;;
30133;SDS011;16946;49.984;10.672;2022-12-08T03:36:00;18.75;;;15.55;;
30133;SDS011;16946;49.984;10.672;2022-12-08T03:36:33;19.60;;;17.02;;
30133;SDS011;16946;49.984;10.672;2022-12-08T03:37:04;20.83;;;16.37;;
30133;SDS011;16946;49.984;10.672;2022-12-08T03:37:35;22.95;;;16.95;;
30133;SDS011;16946;49.984;10.672;2022-12-08T03:38:09;23.00;;;18.00;;
30133;SDS011;16946;49.984;10.672;2022-12-08T03:38:43;21.27;;;16.55;;
30133;SDS011;16946;49.984;10.672;2022-12-08T03:39:14;19.98;;;17.38;;
30133;SDS011;16946;49.984;10.672;2022-12-08T03:39:45;19.43;;;16.20;;
30133;SDS011;16946;49.984;10.672;2022-12-08T03:40:17;21.43;;;17.47;;
30133;SDS011;16946;49.984;10.672;2022-12-08T03:40:49;18.45;;;15.45;;
30133;SDS011;16946;49.984;10.672;2022-12-08T03:41:38;21.40;;;15.82;;
30133;SDS011;16946;49.984;10.672;2022-12-08T03:42:09;19.53;;;17.40;;
30133;SDS011;16946;49.984;10.672;2022-12-08T03:42:39;20.27;;;17.30;;
30133;SDS011;16946;49.984;10.672;2022-12-08T03:43:10;21.27;;;16.80;;
30133;SDS011;16946;49.984;10.672;2022-12-08T03:43:41;20.47;;;17.73;;